Time;durP1;ratioP1;P1;durP2;ratioP2;P2;SDS_P1;SDS_P2;PMS_P1;PMS_P2;Temp;Humidity;BMP_temperature;BMP_pressure;BME280_temperature;BME280_humidity;BME280_pressure;Samples;Min_cycle;Max_cycle;Signal;HPM_P1;HPM_P2
2022/02/09 00:02:38;;;;;;;1.90;1.10;;;;;;;4.41;98.87;97197.63;107473;1270;118556;-84
2022/02/09 00:08:02;;;;;;;1.50;1.00;;;;;;;4.43;98.64;97201.02;105628;1267;2024452;-82
2022/02/09 00:10:36;;;;;;;2.70;1.20;;;;;;;4.47;98.82;97209.73;103787;1268;2636988;-84
2022/02/09 00:13:27;;;;;;;2.10;1.30;;;;;;;4.49;98.64;97205.70;106455;1268;1279022;-83
2022/02/09 00:16:08;;;;;;;1.20;0.90;;;;;;;4.49;98.47;97223.44;104324;1268;2129245;-83
2022/02/09 00:18:48;;;;;;;2.60;1.00;;;;;;;4.48;98.37;97216.54;106205;1268;1802575;-83
2022/02/09 00:27:26;;;;;;;2.50;1.50;;;;;;;4.61;98.32;97237.18;107346;1268;134771;-83
2022/02/09 00:39:10;;;;;;;1.90;1.40;;;;;;;4.69;97.70;97257.29;103725;1312;544959;-84
2022/02/09 00:44:43;;;;;;;1.40;1.10;;;;;;;4.66;97.38;97258.38;106556;1281;190708;-83
2022/02/09 01:44:29;;;;;;;2.70;1.80;;;;;;;4.92;92.03;97300.14;107373;1268;122181;-83
2022/02/09 01:55:29;;;;;;;2.60;2.00;;;;;;;4.89;91.98;97295.77;107581;1267;157985;-83
2022/02/09 01:58:02;;;;;;;2.90;1.50;;;;;;;4.90;92.14;97309.44;105981;1267;1979582;-83
2022/02/09 02:00:33;;;;;;;3.10;1.80;;;;;;;4.88;92.09;97315.03;105851;1267;2148919;-83
2022/02/09 02:03:04;;;;;;;4.00;1.30;;;;;;;4.88;92.26;97310.39;107554;1267;129584;-84
2022/02/09 02:05:35;;;;;;;2.20;1.70;;;;;;;4.85;92.17;97310.16;107469;1267;204347;-83
2022/02/09 02:08:09;;;;;;;2.10;1.60;;;;;;;4.86;92.19;97315.27;107367;1268;166573;-82
2022/02/09 02:10:52;;;;;;;3.70;1.80;;;;;;;4.89;92.12;97322.34;107402;1267;196195;-83
2022/02/09 02:13:58;;;;;;;1.40;1.10;;;;;;;4.90;92.23;97323.01;107711;1267;131299;-83
2022/02/09 02:16:34;;;;;;;2.20;1.10;;;;;;;4.86;92.42;97323.71;102354;1267;3533677;-82
2022/02/09 02:19:09;;;;;;;2.40;2.00;;;;;;;4.85;92.32;97322.04;107453;1267;121755;-83
2022/02/09 02:21:52;;;;;;;2.70;1.60;;;;;;;4.78;92.44;97325.08;107473;1267;176475;-83
2022/02/09 02:44:35;;;;;;;2.20;1.70;;;;;;;4.63;94.46;97333.55;107320;1267;155799;-83
2022/02/09 03:09:51;;;;;;;3.80;1.80;;;;;;;4.64;94.45;97352.65;107480;1265;174945;-82
2022/02/09 03:12:35;;;;;;;2.00;1.50;;;;;;;4.62;94.41;97345.49;107682;1267;150248;-83
2022/02/09 03:15:25;;;;;;;1.90;1.70;;;;;;;4.64;94.38;97352.28;107281;1267;214893;-83
2022/02/09 03:18:18;;;;;;;3.20;1.80;;;;;;;4.65;94.61;97348.42;107507;1267;181791;-82
2022/02/09 03:20:55;;;;;;;5.00;2.30;;;;;;;4.65;94.62;97348.38;107647;1267;98899;-83
2022/02/09 03:23:42;;;;;;;1.50;1.40;;;;;;;4.66;94.62;97355.12;107083;1267;217922;-82
2022/02/09 03:43:23;;;;;;;1.80;1.50;;;;;;;4.67;94.39;97378.21;107431;1267;122308;-83
2022/02/09 03:46:19;;;;;;;2.50;1.60;;;;;;;4.69;94.54;97376.36;105999;1268;2046756;-81
2022/02/09 03:49:26;;;;;;;2.10;1.40;;;;;;;4.71;94.67;97370.44;107633;1267;162007;-83
2022/02/09 03:52:06;;;;;;;1.20;0.70;;;;;;;4.74;94.55;97378.66;107276;1267;188500;-82
2022/02/09 03:54:51;;;;;;;1.40;1.30;;;;;;;4.73;94.43;97378.89;107456;1267;121681;-83
2022/02/09 03:57:27;;;;;;;1.40;1.00;;;;;;;4.72;94.47;97385.02;107615;1268;207884;-83
2022/02/09 04:00:00;;;;;;;1.10;1.00;;;;;;;4.73;94.46;97380.88;107222;1267;195335;-83
2022/02/09 04:02:31;;;;;;;2.00;1.00;;;;;;;4.72;94.48;97379.30;104494;1267;2573757;-83
2022/02/09 04:05:02;;;;;;;1.00;0.70;;;;;;;4.70;94.26;97385.08;107371;1267;154235;-82
2022/02/09 04:07:36;;;;;;;1.70;0.70;;;;;;;4.66;94.50;97386.70;107298;1270;187050;-83
2022/02/09 04:10:19;;;;;;;1.60;0.90;;;;;;;4.64;94.38;97382.67;105806;1270;2033728;-83
2022/02/09 04:13:02;;;;;;;1.70;1.20;;;;;;;4.60;94.62;97388.41;108118;1270;44642;-83
2022/02/09 04:15:50;;;;;;;1.60;0.90;;;;;;;4.57;94.56;97386.28;107379;1265;161953;-83
2022/02/09 04:18:40;;;;;;;2.20;1.00;;;;;;;4.55;94.74;97382.52;106533;1267;1514817;-83
2022/02/09 04:38:09;;;;;;;2.00;1.30;;;;;;;4.64;94.68;97376.22;106626;1267;1288224;-82
2022/02/09 04:43:43;;;;;;;2.20;1.30;;;;;;;4.53;94.75;97384.29;106395;1269;1311322;-81
2022/02/09 04:49:40;;;;;;;1.10;0.80;;;;;;;4.54;94.88;97386.54;103709;1308;546581;-83
2022/02/09 04:52:26;;;;;;;1.90;1.10;;;;;;;4.55;94.74;97386.96;107019;1274;188160;-84
2022/02/09 04:55:09;;;;;;;1.90;1.30;;;;;;;4.55;94.67;97385.70;107115;1274;115903;-83
2022/02/09 04:57:45;;;;;;;1.20;1.10;;;;;;;4.57;94.69;97388.27;106494;1269;1323637;-84
2022/02/09 05:00:29;;;;;;;2.20;1.20;;;;;;;4.61;94.76;97386.70;104473;1267;2416391;-83
2022/02/09 05:23:20;;;;;;;2.00;1.60;;;;;;;4.50;94.63;97397.50;107241;1270;214317;-84
2022/02/09 05:26:03;;;;;;;2.10;1.30;;;;;;;4.47;94.74;97393.30;106757;1267;1265050;-84
2022/02/09 05:28:35;;;;;;;2.50;1.10;;;;;;;4.43;94.84;97396.88;107294;1267;233526;-83
2022/02/09 05:31:08;;;;;;;1.30;1.20;;;;;;;4.41;94.90;97400.02;107209;1267;228264;-83
2022/02/09 05:33:39;;;;;;;2.20;1.20;;;;;;;4.41;95.01;97403.80;107275;1267;193693;-84
2022/02/09 05:36:11;;;;;;;2.50;1.30;;;;;;;4.43;95.06;97408.14;107142;1267;264071;-84
2022/02/09 05:38:43;;;;;;;1.80;1.60;;;;;;;4.43;94.93;97412.46;107495;1267;173514;-84
2022/02/09 05:41:14;;;;;;;2.50;1.70;;;;;;;4.44;94.93;97413.90;106700;1266;1301900;-83
2022/02/09 05:43:48;;;;;;;2.20;1.10;;;;;;;4.45;95.00;97404.91;106491;1267;1225004;-83
2022/02/09 05:49:34;;;;;;;1.80;1.30;;;;;;;4.45;94.81;97398.54;107364;1268;108963;-83
2022/02/09 05:52:17;;;;;;;1.40;0.90;;;;;;;4.42;94.58;97402.77;105627;1267;2539468;-83
2022/02/09 05:55:11;;;;;;;1.80;1.10;;;;;;;4.38;94.65;97409.05;107533;1267;108031;-84
2022/02/09 05:57:48;;;;;;;1.60;0.60;;;;;;;4.38;94.73;97414.46;107395;1267;162572;-84
2022/02/09 06:00:20;;;;;;;0.90;0.70;;;;;;;4.41;94.88;97421.73;106565;1267;1074801;-84
2022/02/09 06:02:51;;;;;;;2.00;1.30;;;;;;;4.45;94.87;97427.23;106775;1267;1335733;-84
2022/02/09 06:05:22;;;;;;;2.40;1.20;;;;;;;4.44;94.62;97428.55;106703;1267;1264479;-84
2022/02/09 06:07:54;;;;;;;1.40;1.00;;;;;;;4.45;94.85;97425.00;107567;1268;160581;-83
2022/02/09 06:10:29;;;;;;;1.40;0.90;;;;;;;4.43;94.91;97430.98;107426;1267;184018;-83
2022/02/09 06:13:14;;;;;;;1.60;0.70;;;;;;;4.41;94.71;97434.73;106094;1267;1889455;-83
2022/02/09 06:21:22;;;;;;;0.60;0.60;;;;;;;4.43;94.62;97432.05;107423;1267;175195;-83
2022/02/09 06:23:53;;;;;;;0.80;0.60;;;;;;;4.45;94.83;97433.79;106502;1267;1722771;-83
2022/02/09 06:26:24;;;;;;;1.10;0.80;;;;;;;4.49;94.86;97439.48;107879;1266;89836;-83
2022/02/09 06:28:56;;;;;;;0.70;0.70;;;;;;;4.45;94.58;97443.86;107469;1267;133229;-83
2022/02/09 06:31:27;;;;;;;0.80;0.80;;;;;;;4.46;94.55;97446.83;106293;1266;1826185;-82
2022/02/09 06:33:59;;;;;;;1.20;0.90;;;;;;;4.48;94.67;97453.67;106087;1267;1882164;-83
2022/02/09 06:36:31;;;;;;;1.70;1.10;;;;;;;4.51;94.61;97452.85;107526;1264;168813;-82
2022/02/09 06:39:05;;;;;;;1.50;0.90;;;;;;;4.50;94.56;97450.70;107557;1267;129225;-83
2022/02/09 06:41:37;;;;;;;2.30;1.20;;;;;;;4.48;94.73;97453.75;107528;1267;111432;-83
2022/02/09 06:44:09;;;;;;;1.80;1.20;;;;;;;4.48;94.70;97456.66;107452;1267;152037;-83
2022/02/09 06:46:40;;;;;;;0.90;0.80;;;;;;;4.54;94.72;97461.34;107263;1267;167707;-83
2022/02/09 06:49:12;;;;;;;1.70;1.00;;;;;;;4.57;94.66;97464.13;105833;1268;2070367;-83
2022/02/09 06:51:45;;;;;;;2.10;0.90;;;;;;;4.56;94.76;97466.77;106181;1268;1896289;-84
2022/02/09 06:54:24;;;;;;;0.80;0.80;;;;;;;4.58;94.69;97469.24;105952;1268;1997293;-83
2022/02/09 06:57:05;;;;;;;1.40;0.70;;;;;;;4.62;94.77;97467.66;107538;1268;227229;-81
2022/02/09 06:59:41;;;;;;;2.10;0.80;;;;;;;4.60;94.57;97468.61;105768;1268;1940233;-83
2022/02/09 07:02:13;;;;;;;1.50;1.00;;;;;;;4.61;94.90;97462.55;105990;1269;1852538;-83
2022/02/09 07:04:49;;;;;;;2.30;1.20;;;;;;;4.62;95.03;97466.66;105769;1268;2000970;-83
2022/02/09 07:07:22;;;;;;;1.90;1.10;;;;;;;4.65;95.10;97462.71;105854;1268;2088610;-83
2022/02/09 07:09:53;;;;;;;1.50;0.70;;;;;;;4.68;95.08;97459.25;106265;1267;1824872;-83
2022/02/09 07:12:26;;;;;;;1.50;0.90;;;;;;;4.71;95.10;97457.06;106755;1270;1260420;-83
2022/02/09 07:14:57;;;;;;;2.20;1.20;;;;;;;4.68;95.02;97452.86;106375;1268;1331848;-83
2022/02/09 07:17:30;;;;;;;2.60;1.50;;;;;;;4.64;94.78;97451.81;107427;1268;127159;-83
2022/02/09 07:20:09;;;;;;;2.00;1.20;;;;;;;4.62;94.99;97449.08;107484;1268;131617;-84
2022/02/09 07:22:41;;;;;;;4.00;1.50;;;;;;;4.62;95.02;97452.59;107511;1268;165420;-83
2022/02/09 07:25:16;;;;;;;2.60;1.80;;;;;;;4.64;95.08;97451.23;107391;1268;132523;-83
2022/02/09 07:27:51;;;;;;;3.00;1.70;;;;;;;4.66;95.09;97452.52;107448;1268;125041;-83
2022/02/09 07:30:25;;;;;;;2.40;1.50;;;;;;;4.64;95.00;97453.39;107614;1268;184656;-83
2022/02/09 07:32:58;;;;;;;2.30;1.60;;;;;;;4.62;95.06;97458.23;107442;1269;126627;-82
2022/02/09 07:35:29;;;;;;;2.50;1.40;;;;;;;4.73;95.47;97460.84;107492;1268;175492;-83
2022/02/09 07:38:01;;;;;;;2.00;1.40;;;;;;;4.88;95.55;97463.30;107198;1267;201060;-83
2022/02/09 07:40:33;;;;;;;2.00;1.40;;;;;;;4.87;95.32;97463.18;107201;1268;274179;-83
2022/02/09 07:43:11;;;;;;;3.10;1.40;;;;;;;4.90;95.44;97459.46;106460;1268;1258794;-84
2022/02/09 07:46:00;;;;;;;2.90;1.70;;;;;;;4.85;95.07;97459.81;106539;1267;1242586;-83
2022/02/09 07:48:53;;;;;;;1.70;1.20;;;;;;;4.84;95.12;97460.41;105563;1267;2541057;-83
2022/02/09 07:54:14;;;;;;;1.70;1.20;;;;;;;4.88;95.46;97465.55;106391;1268;1541277;-83
2022/02/09 07:56:46;;;;;;;2.70;1.30;;;;;;;4.90;95.51;97467.39;107294;1268;159016;-83
2022/02/09 07:59:18;;;;;;;2.00;1.20;;;;;;;4.91;95.39;97462.91;107406;1268;185042;-83
2022/02/09 08:01:49;;;;;;;3.00;1.40;;;;;;;4.93;95.34;97461.17;107470;1268;193842;-83
2022/02/09 08:04:21;;;;;;;1.60;1.10;;;;;;;4.94;95.53;97463.02;107413;1268;121883;-83
2022/02/09 08:06:52;;;;;;;2.30;1.60;;;;;;;5.00;95.46;97454.08;106059;1266;2132760;-83
2022/02/09 08:09:30;;;;;;;2.60;1.50;;;;;;;5.04;95.43;97454.64;107609;1267;137323;-83
2022/02/09 08:12:27;;;;;;;1.90;1.40;;;;;;;5.04;95.32;97455.44;104738;1268;2080287;-84
2022/02/09 08:24:06;;;;;;;3.80;1.30;;;;;;;5.12;95.71;97463.92;106268;1268;1485965;-83
2022/02/09 08:29:43;;;;;;;2.00;1.90;;;;;;;5.14;95.55;97458.61;107151;1267;175211;-83
2022/02/09 08:35:13;;;;;;;2.80;1.40;;;;;;;5.10;95.76;97456.77;105172;1268;2584144;-83
2022/02/09 08:37:47;;;;;;;3.10;1.80;;;;;;;5.09;95.91;97454.75;106908;1269;1536477;-83
2022/02/09 08:40:21;;;;;;;3.40;1.40;;;;;;;5.10;96.09;97451.77;108018;1267;62686;-83
2022/02/09 08:42:53;;;;;;;2.00;1.60;;;;;;;5.16;96.20;97450.65;108131;1268;46590;-84
2022/02/09 08:45:29;;;;;;;3.20;1.90;;;;;;;5.26;96.29;97451.92;108155;1268;53752;-83
2022/02/09 08:48:00;;;;;;;2.50;1.70;;;;;;;5.28;96.02;97454.98;107960;1270;60954;-83
2022/02/09 08:50:34;;;;;;;3.60;1.70;;;;;;;5.22;95.94;97454.14;107572;1268;127326;-83
2022/02/09 08:53:06;;;;;;;2.70;1.80;;;;;;;5.23;96.07;97453.16;107346;1268;163991;-83
2022/02/09 08:55:38;;;;;;;2.70;1.90;;;;;;;5.21;96.00;97457.55;107458;1267;105931;-84
2022/02/09 08:58:09;;;;;;;3.80;2.50;;;;;;;5.15;95.88;97455.35;104873;1268;2078639;-83
2022/02/09 09:00:40;;;;;;;2.80;2.10;;;;;;;5.14;96.26;97459.61;107451;1268;135926;-83
2022/02/09 09:03:17;;;;;;;2.80;2.10;;;;;;;5.13;96.20;97460.27;106159;1270;1989654;-83
2022/02/09 09:05:50;;;;;;;3.20;1.90;;;;;;;5.14;96.37;97458.64;106643;1267;1276347;-83
2022/02/09 09:08:47;;;;;;;2.50;2.00;;;;;;;5.11;96.26;97459.05;106181;1268;2106531;-83
2022/02/09 09:12:01;;;;;;;2.30;1.60;;;;;;;5.09;96.50;97455.96;105465;1268;2462273;-83
2022/02/09 10:03:37;;;;;;;1.60;0.90;;;;;;;5.27;97.42;97464.73;105883;1268;1748367;-83
2022/02/09 10:35:22;;;;;;;2.10;1.60;;;;;;;5.54;97.52;97461.73;105915;1269;2220301;-83
2022/02/09 10:37:55;;;;;;;3.00;1.50;;;;;;;5.57;97.59;97459.66;107595;1268;270735;-83
2022/02/09 10:40:40;;;;;;;3.40;1.60;;;;;;;5.60;97.74;97456.25;106656;1268;1860995;-83
2022/02/09 10:43:30;;;;;;;3.40;1.90;;;;;;;5.61;97.57;97450.12;106068;1268;1840096;-84
2022/02/09 10:46:20;;;;;;;1.60;1.40;;;;;;;5.66;97.85;97447.67;104598;1267;2053247;-83
2022/02/09 10:48:53;;;;;;;;;;;;;;;5.68;97.56;97442.10;106161;1268;1933810;-83
2022/02/09 10:51:31;;;;;;;1.90;1.20;;;;;;;5.66;97.59;97436.06;104296;1268;2619971;-83
2022/02/09 10:54:12;;;;;;;2.80;1.90;;;;;;;5.65;97.53;97433.95;107372;1268;174981;-83
2022/02/09 10:56:48;;;;;;;2.80;1.70;;;;;;;5.63;97.51;97431.89;104375;1269;2145533;-83
2022/02/09 10:59:23;;;;;;;3.10;2.20;;;;;;;5.61;97.40;97424.46;107429;1268;143339;-84
2022/02/09 11:01:58;;;;;;;3.70;2.00;;;;;;;5.61;97.42;97424.77;107534;1268;172873;-83
2022/02/09 11:04:30;;;;;;;3.60;2.00;;;;;;;5.62;97.40;97428.29;104768;1267;2020552;-83
2022/02/09 11:07:05;;;;;;;3.70;2.30;;;;;;;5.64;97.49;97428.44;107124;1268;224867;-83
2022/02/09 11:09:37;;;;;;;3.10;2.20;;;;;;;5.62;97.51;97427.21;106554;1270;1321894;-83
2022/02/09 11:12:09;;;;;;;3.60;2.50;;;;;;;5.60;97.59;97430.23;106080;1268;1825501;-84
2022/02/09 11:14:42;;;;;;;3.20;2.10;;;;;;;5.60;97.61;97429.98;106197;1268;1810319;-83
2022/02/09 11:17:14;;;;;;;3.90;2.40;;;;;;;5.59;97.56;97429.92;107361;1268;239276;-83
2022/02/09 11:19:46;;;;;;;3.30;2.30;;;;;;;5.61;97.67;97434.19;106196;1268;1778026;-83
2022/02/09 11:22:23;;;;;;;3.40;1.90;;;;;;;5.63;97.44;97427.11;107460;1268;133275;-83
2022/02/09 11:25:14;;;;;;;3.30;2.30;;;;;;;5.66;97.55;97426.06;107710;1268;111093;-83
2022/02/09 11:27:53;;;;;;;3.90;2.40;;;;;;;5.69;97.59;97426.34;107426;1268;187027;-83
2022/02/09 11:30:34;;;;;;;3.10;2.30;;;;;;;5.71;97.60;97424.77;106824;1268;1302119;-83
2022/02/09 11:33:24;;;;;;;4.00;2.50;;;;;;;5.76;97.43;97418.08;107482;1268;141514;-83
2022/02/09 11:36:25;;;;;;;4.40;3.00;;;;;;;5.81;97.38;97415.63;107589;1268;157249;-83
2022/02/09 11:39:02;;;;;;;5.40;2.70;;;;;;;5.83;97.31;97413.52;107551;1268;159550;-82
2022/02/09 11:41:37;;;;;;;6.10;2.80;;;;;;;5.89;97.25;97408.21;107358;1268;128205;-83
2022/02/09 11:44:53;;;;;;;4.40;2.90;;;;;;;5.92;97.32;97403.66;107452;1268;148448;-84
2022/02/09 11:47:58;;;;;;;5.00;2.60;;;;;;;5.94;96.86;97398.03;107563;1268;179421;-84
2022/02/09 11:51:01;;;;;;;4.50;2.20;;;;;;;5.97;96.82;97392.77;107245;1268;189428;-83
2022/02/09 11:56:58;;;;;;;3.40;2.30;;;;;;;6.05;96.75;97390.25;107281;1268;172878;-83
2022/02/09 12:00:01;;;;;;;4.70;2.80;;;;;;;6.17;96.42;97390.69;107480;1268;132530;-83
2022/02/09 12:08:54;;;;;;;4.30;2.80;;;;;;;6.48;95.54;97388.64;106433;1268;1449822;-83
2022/02/09 12:12:02;;;;;;;4.30;2.80;;;;;;;6.61;95.20;97392.89;106152;1268;1816620;-84
2022/02/09 12:15:00;;;;;;;6.00;2.70;;;;;;;6.64;94.51;97393.45;107445;1268;196345;-84
2022/02/09 12:17:47;;;;;;;3.40;2.00;;;;;;;6.62;94.17;97394.17;106538;1268;1219761;-84
2022/02/09 12:20:25;;;;;;;4.50;2.50;;;;;;;6.58;93.72;97391.89;107093;1268;282931;-84
2022/02/09 12:23:08;;;;;;;6.80;4.10;;;;;;;6.62;93.61;97395.47;105761;1268;2134468;-83
2022/02/09 12:25:44;;;;;;;5.60;2.80;;;;;;;6.67;93.62;97393.34;106139;1268;1796200;-84
2022/02/09 12:28:22;;;;;;;5.00;3.00;;;;;;;6.68;93.17;97394.36;107446;1268;165196;-84
2022/02/09 12:31:05;;;;;;;4.20;2.60;;;;;;;6.72;92.83;97395.02;107620;1268;154224;-84
2022/02/09 12:33:44;;;;;;;5.00;2.30;;;;;;;6.73;92.48;97396.13;105773;1268;2157323;-84
2022/02/09 12:36:19;;;;;;;5.60;2.80;;;;;;;6.68;92.27;97393.67;105911;1268;2110180;-84
2022/02/09 12:38:57;;;;;;;5.20;2.60;;;;;;;6.66;92.24;97390.11;107543;1268;191634;-84
2022/02/09 12:41:31;;;;;;;4.80;2.60;;;;;;;6.63;91.90;97389.70;106053;1268;1839653;-84
2022/02/09 12:44:04;;;;;;;5.10;2.60;;;;;;;6.66;91.99;97393.27;107178;1268;222874;-84
2022/02/09 12:46:40;;;;;;;5.80;2.50;;;;;;;6.66;91.79;97394.13;107390;1268;193057;-84
2022/02/09 12:49:15;;;;;;;3.60;2.70;;;;;;;6.65;91.46;97391.52;105052;1268;1768954;-84
2022/02/09 12:51:50;;;;;;;6.50;3.10;;;;;;;6.58;91.44;97389.83;106419;1268;1301300;-84
2022/02/09 12:54:21;;;;;;;5.00;2.80;;;;;;;6.54;91.45;97388.92;105743;1268;2168978;-84
2022/02/09 12:56:55;;;;;;;5.60;3.30;;;;;;;6.55;91.39;97389.73;107562;1268;106731;-84
2022/02/09 12:59:27;;;;;;;3.90;2.00;;;;;;;6.52;91.31;97385.73;107350;1268;131680;-83
2022/02/09 13:01:59;;;;;;;3.40;2.30;;;;;;;6.50;91.23;97387.16;107376;1268;123865;-83
2022/02/09 13:04:34;;;;;;;4.90;3.10;;;;;;;6.42;91.01;97391.11;107418;1268;143988;-84
2022/02/09 13:07:08;;;;;;;4.00;2.70;;;;;;;6.40;91.17;97388.95;107293;1267;203306;-84
2022/02/09 13:09:46;;;;;;;4.50;2.80;;;;;;;6.37;90.91;97387.42;107359;1268;167375;-85
2022/02/09 13:12:25;;;;;;;4.30;2.70;;;;;;;6.30;90.92;97387.48;107394;1269;95683;-85
2022/02/09 13:15:07;;;;;;;4.10;2.00;;;;;;;6.23;90.81;97395.81;107074;1268;1656739;-83
2022/02/09 13:18:09;;;;;;;5.80;3.00;;;;;;;6.09;90.78;97388.93;107424;1268;162091;-84
2022/02/09 14:07:18;;;;;;;5.90;3.50;;;;;;;6.01;92.36;97403.90;105950;1268;2244968;-83
2022/02/09 14:13:02;;;;;;;5.80;3.40;;;;;;;6.14;91.92;97398.30;105748;1265;2337561;-84
2022/02/09 14:16:02;;;;;;;6.00;3.30;;;;;;;6.13;91.86;97392.59;96417;1268;4946428;-85
2022/02/09 14:18:59;;;;;;;8.20;3.60;;;;;;;6.14;91.73;97393.50;105747;1268;2162667;-84
2022/02/09 14:47:10;;;;;;;5.20;3.10;;;;;;;5.77;91.45;97392.38;104213;1268;2550153;-84
2022/02/09 14:53:04;;;;;;;7.40;4.10;;;;;;;5.47;91.81;97387.70;107773;1268;144088;-84
2022/02/09 14:55:51;;;;;;;8.30;4.90;;;;;;;5.46;91.75;97390.80;107538;1268;126540;-84
2022/02/09 14:58:26;;;;;;;11.60;5.30;;;;;;;5.44;91.71;97392.38;107585;1267;130630;-84
2022/02/09 15:01:05;;;;;;;9.30;5.30;;;;;;;5.42;91.52;97394.76;106611;1268;1368793;-83
2022/02/09 15:09:17;;;;;;;10.80;6.00;;;;;;;5.45;91.69;97392.77;107217;1267;240140;-84
2022/02/09 15:12:03;;;;;;;13.50;7.30;;;;;;;5.44;91.35;97396.42;107496;1268;127039;-84
2022/02/09 15:14:48;;;;;;;12.20;6.80;;;;;;;5.41;91.37;97393.63;106640;1268;1304364;-84
2022/02/09 15:17:34;;;;;;;12.50;7.30;;;;;;;5.38;91.35;97392.98;107295;1267;197401;-84
2022/02/09 15:20:44;;;;;;;13.70;7.70;;;;;;;5.32;91.26;97397.35;106632;1268;1174922;-84
2022/02/09 15:23:21;;;;;;;10.70;6.70;;;;;;;5.23;91.34;97399.33;106238;1268;1558448;-84
2022/02/09 15:25:54;;;;;;;14.80;7.50;;;;;;;5.17;91.52;97401.27;107498;1268;183541;-84
2022/02/09 15:28:26;;;;;;;11.50;7.50;;;;;;;5.12;91.56;97400.77;107374;1269;166483;-84
2022/02/09 15:31:10;;;;;;;9.00;6.10;;;;;;;5.07;91.77;97399.91;105920;1268;1911346;-83
2022/02/09 15:33:45;;;;;;;9.80;5.60;;;;;;;5.06;91.98;97402.61;107285;1268;154053;-84
2022/02/09 15:36:25;;;;;;;12.10;6.50;;;;;;;5.08;91.91;97402.01;107131;1268;152480;-84
2022/02/09 15:38:57;;;;;;;9.60;6.00;;;;;;;5.09;92.10;97402.81;107396;1267;140596;-82
2022/02/09 15:41:37;;;;;;;8.70;5.60;;;;;;;5.08;92.17;97401.33;107474;1268;120438;-84
2022/02/09 15:56:16;;;;;;;11.30;5.30;;;;;;;5.09;92.30;97399.77;107708;1267;108296;-84
2022/02/09 15:58:36;;;;;;;10.40;6.10;;;;;;;4.88;92.25;97392.84;104464;1268;2703553;-84
2022/02/09 16:09:52;;;;;;;10.00;5.50;;;;;;;4.74;92.22;97394.79;107091;1271;225432;-84
2022/02/09 16:23:41;;;;;;;6.20;3.40;;;;;;;4.70;92.31;97394.78;105035;1268;1931841;-84
2022/02/09 16:33:12;;;;;;;12.50;5.90;;;;;;;4.70;92.23;97392.10;107479;1268;151387;-84
2022/02/09 16:37:48;;;;;;;7.80;4.90;;;;;;;4.62;91.97;97400.80;105621;1268;2558264;-85
2022/02/09 16:48:50;;;;;;;8.90;6.00;;;;;;;4.57;92.37;97401.67;107477;1267;118243;-84
2022/02/09 16:51:23;;;;;;;13.20;6.90;;;;;;;4.58;92.26;97398.80;107486;1268;120566;-84
2022/02/09 16:54:06;;;;;;;11.80;6.40;;;;;;;4.59;92.50;97397.84;106605;1268;1789583;-84
2022/02/09 16:56:56;;;;;;;11.70;7.40;;;;;;;4.61;92.28;97397.02;105341;1268;2629954;-84
2022/02/09 17:08:39;;;;;;;14.40;7.90;;;;;;;4.53;92.04;97398.83;105676;1273;2075627;-84
2022/02/09 17:19:41;;;;;;;14.80;8.60;;;;;;;4.49;91.84;97395.83;107513;1267;117986;-84
2022/02/09 17:22:12;;;;;;;9.80;6.40;;;;;;;4.48;91.77;97393.86;105821;1268;2346831;-84
2022/02/09 17:24:44;;;;;;;10.40;6.40;;;;;;;4.49;91.67;97394.23;105952;1268;1873776;-84
2022/02/09 17:27:19;;;;;;;12.90;6.90;;;;;;;4.50;91.75;97395.85;106245;1267;1692150;-84
2022/02/09 17:32:48;;;;;;;9.70;6.00;;;;;;;4.52;91.82;97403.02;107568;1267;111192;-83
2022/02/09 17:35:23;;;;;;;18.00;8.60;;;;;;;4.52;91.60;97405.47;107571;1267;114422;-84
2022/02/09 17:55:30;;;;;;;6.70;4.30;;;;;;;4.52;91.27;97387.25;106062;1268;2092566;-84
2022/02/09 17:58:08;;;;;;;9.20;5.20;;;;;;;4.50;91.20;97388.66;107292;1268;265622;-84
2022/02/09 18:00:39;;;;;;;10.00;4.60;;;;;;;4.47;91.24;97389.05;107439;1268;182750;-84
2022/02/09 18:03:11;;;;;;;9.10;4.80;;;;;;;4.45;91.17;97383.67;107409;1268;147305;-84
2022/02/09 18:05:47;;;;;;;7.60;3.80;;;;;;;4.43;91.25;97385.84;107569;1267;104548;-84
2022/02/09 18:08:25;;;;;;;6.70;4.10;;;;;;;4.41;91.20;97382.52;107443;1267;220211;-84
2022/02/09 18:11:13;;;;;;;9.40;5.10;;;;;;;4.38;91.26;97381.79;107816;1267;92274;-84
2022/02/09 18:25:49;;;;;;;7.40;4.40;;;;;;;4.42;91.38;97393.85;105501;1271;2134755;-84
2022/02/09 18:31:22;;;;;;;5.90;3.70;;;;;;;4.41;91.36;97405.63;105965;1267;2040458;-84
2022/02/09 18:34:08;;;;;;;8.10;4.30;;;;;;;4.41;91.40;97400.48;106799;1268;1298994;-84
2022/02/09 18:45:29;;;;;;;5.80;3.40;;;;;;;4.48;91.23;97408.60;100941;1308;2128567;-85
2022/02/09 18:48:14;;;;;;;9.20;5.00;;;;;;;4.47;91.19;97403.00;106126;1282;250777;-84
2022/02/09 18:57:01;;;;;;;8.30;4.80;;;;;;;4.50;91.40;97394.33;106609;1281;130187;-84
2022/02/09 18:59:49;;;;;;;10.30;4.80;;;;;;;4.51;91.13;97392.26;105079;1277;1864865;-84
2022/02/09 19:05:23;;;;;;;11.30;6.20;;;;;;;4.53;90.95;97400.56;105691;1275;1718931;-84
2022/02/09 19:14:17;;;;;;;10.20;6.20;;;;;;;4.52;90.96;97402.84;106122;1285;122689;-84
2022/02/09 19:16:52;;;;;;;8.00;4.10;;;;;;;4.45;90.87;97400.35;105258;1281;2038978;-85
2022/02/09 19:19:54;;;;;;;8.10;4.80;;;;;;;4.45;90.98;97400.84;105728;1281;1563119;-84
2022/02/09 19:30:54;;;;;;;9.60;4.60;;;;;;;4.59;90.49;97397.16;107086;1277;113835;-84
2022/02/09 19:40:30;;;;;;;7.00;3.50;;;;;;;4.64;90.24;97386.11;105401;1277;2157857;-84
2022/02/09 19:43:03;;;;;;;6.20;3.80;;;;;;;4.67;89.45;97377.73;107034;1277;145818;-85
2022/02/09 19:45:44;;;;;;;6.70;3.60;;;;;;;4.69;89.29;97381.53;105033;1277;2550247;-84
2022/02/09 19:48:17;;;;;;;6.40;3.70;;;;;;;4.70;89.28;97383.54;105474;1277;2121964;-83
2022/02/09 19:50:54;;;;;;;7.70;4.50;;;;;;;4.72;89.08;97385.00;104096;1277;2026495;-83
2022/02/09 19:53:29;;;;;;;9.30;5.20;;;;;;;4.73;88.97;97393.92;105958;1278;1351354;-83
2022/02/09 19:56:05;;;;;;;6.80;4.00;;;;;;;4.67;89.05;97391.86;105810;1274;1784217;-83
2022/02/09 19:58:40;;;;;;;9.00;5.10;;;;;;;4.64;88.93;97398.27;106851;1273;189014;-83
2022/02/09 20:01:15;;;;;;;6.40;3.70;;;;;;;4.59;89.08;97400.88;106966;1274;166664;-84
2022/02/09 20:03:48;;;;;;;6.00;3.90;;;;;;;4.61;89.11;97386.23;106260;1273;1258875;-83
2022/02/09 20:06:17;;;;;;;9.20;4.50;;;;;;;4.65;89.12;97394.72;105734;1274;2038544;-83
2022/02/09 20:08:47;;;;;;;7.20;3.70;;;;;;;4.65;88.98;97404.13;106757;1274;236784;-83
2022/02/09 20:11:17;;;;;;;11.30;4.70;;;;;;;4.65;88.98;97402.43;105802;1274;1808847;-83
2022/02/09 20:13:47;;;;;;;9.60;4.70;;;;;;;4.65;88.91;97398.27;106994;1274;179260;-83
2022/02/09 20:16:20;;;;;;;9.70;4.30;;;;;;;4.66;88.83;97402.10;107016;1274;124301;-84
2022/02/09 20:18:49;;;;;;;10.20;5.30;;;;;;;4.63;88.98;97408.82;105949;1274;1636769;-84
2022/02/09 20:21:20;;;;;;;11.30;5.20;;;;;;;4.61;88.79;97413.05;107042;1274;152466;-84
2022/02/09 20:23:51;;;;;;;5.30;3.20;;;;;;;4.58;88.92;97410.59;104076;1274;3306204;-83
2022/02/09 20:26:21;;;;;;;6.60;4.10;;;;;;;4.59;88.94;97407.83;107057;1274;128906;-84
2022/02/09 20:28:55;;;;;;;8.50;4.60;;;;;;;4.60;88.86;97413.19;106909;1273;305509;-83
2022/02/09 20:31:29;;;;;;;7.10;4.40;;;;;;;4.56;88.98;97418.41;105919;1274;1692709;-84
2022/02/09 20:34:00;;;;;;;9.70;5.00;;;;;;;4.54;89.00;97422.23;105602;1274;2119685;-83
2022/02/09 20:36:31;;;;;;;8.70;5.10;;;;;;;4.60;88.84;97417.39;106054;1274;1488888;-83
2022/02/09 20:39:01;;;;;;;;;;;;;;;4.60;88.68;97416.39;106701;1274;247565;-83
2022/02/09 20:41:32;;;;;;;9.70;5.40;;;;;;;4.59;88.34;97416.39;106055;1273;1496545;-83
2022/02/09 20:44:06;;;;;;;9.10;5.60;;;;;;;4.59;88.21;97422.77;104613;1274;1833253;-84
2022/02/09 20:46:35;;;;;;;8.70;4.90;;;;;;;4.57;88.10;97423.53;106048;1273;1251662;-82
2022/02/09 20:49:05;;;;;;;8.90;5.00;;;;;;;4.55;88.04;97423.40;103256;1274;1912752;-83
2022/02/09 20:51:34;;;;;;;7.30;4.00;;;;;;;4.52;87.87;97419.23;105582;1274;1967658;-83
2022/02/09 20:54:03;;;;;;;7.80;4.10;;;;;;;4.53;87.70;97422.10;105555;1274;1968346;-84
2022/02/09 20:56:33;;;;;;;15.40;4.70;;;;;;;4.52;87.84;97433.67;105632;1274;1974237;-83
2022/02/09 20:59:05;;;;;;;7.90;4.60;;;;;;;4.50;87.71;97430.30;107135;1274;124363;-84
2022/02/09 21:01:40;;;;;;;8.50;5.80;;;;;;;4.49;87.63;97425.38;106248;1274;1281323;-83